sensor_id;sensor_type;location;lat;lon;timestamp;temperature;humidity
54202;DHT22;40108;53.152;5.844;2023-07-02T00:00:28;15.70;78.80
54202;DHT22;40108;53.152;5.844;2023-07-02T00:02:53;15.70;78.90
54202;DHT22;40108;53.152;5.844;2023-07-02T00:05:19;15.70;79.10
54202;DHT22;40108;53.152;5.844;2023-07-02T00:07:45;15.60;79.20
54202;DHT22;40108;53.152;5.844;2023-07-02T00:10:10;15.60;79.40
54202;DHT22;40108;53.152;5.844;2023-07-02T00:12:36;15.60;79.60
54202;DHT22;40108;53.152;5.844;2023-07-02T00:15:02;15.60;79.70
54202;DHT22;40108;53.152;5.844;2023-07-02T00:17:28;15.60;79.80
54202;DHT22;40108;53.152;5.844;2023-07-02T00:19:54;15.50;80.00
54202;DHT22;40108;53.152;5.844;2023-07-02T00:22:21;15.50;80.30
54202;DHT22;40108;53.152;5.844;2023-07-02T00:24:46;15.40;80.40
54202;DHT22;40108;53.152;5.844;2023-07-02T00:27:12;15.40;80.50
54202;DHT22;40108;53.152;5.844;2023-07-02T00:29:38;15.40;80.50
54202;DHT22;40108;53.152;5.844;2023-07-02T00:32:04;15.40;80.60
54202;DHT22;40108;53.152;5.844;2023-07-02T00:34:30;15.40;80.70
54202;DHT22;40108;53.152;5.844;2023-07-02T00:36:56;15.40;80.70
54202;DHT22;40108;53.152;5.844;2023-07-02T00:39:21;15.30;80.60
54202;DHT22;40108;53.152;5.844;2023-07-02T00:41:47;15.20;80.70
54202;DHT22;40108;53.152;5.844;2023-07-02T00:44:13;15.20;80.60
54202;DHT22;40108;53.152;5.844;2023-07-02T00:46:39;15.20;80.60
54202;DHT22;40108;53.152;5.844;2023-07-02T00:49:06;15.20;80.50
54202;DHT22;40108;53.152;5.844;2023-07-02T00:51:32;15.10;80.40
54202;DHT22;40108;53.152;5.844;2023-07-02T00:53:58;15.10;80.50
54202;DHT22;40108;53.152;5.844;2023-07-02T00:56:25;15.10;80.50
54202;DHT22;40108;53.152;5.844;2023-07-02T00:58:55;15.10;80.60
54202;DHT22;40108;53.152;5.844;2023-07-02T01:01:26;15.10;80.70
54202;DHT22;40108;53.152;5.844;2023-07-02T01:04:01;15.10;80.80
54202;DHT22;40108;53.152;5.844;2023-07-02T01:06:32;15.00;80.80
54202;DHT22;40108;53.152;5.844;2023-07-02T01:09:03;15.00;81.10
54202;DHT22;40108;53.152;5.844;2023-07-02T01:11:47;14.90;81.10
54202;DHT22;40108;53.152;5.844;2023-07-02T01:14:26;14.90;81.10
54202;DHT22;40108;53.152;5.844;2023-07-02T01:16:53;14.90;81.20
54202;DHT22;40108;53.152;5.844;2023-07-02T01:21:59;14.90;81.40
54202;DHT22;40108;53.152;5.844;2023-07-02T01:24:26;14.80;81.60
54202;DHT22;40108;53.152;5.844;2023-07-02T01:26:53;14.80;81.60
54202;DHT22;40108;53.152;5.844;2023-07-02T01:29:20;14.70;81.90
54202;DHT22;40108;53.152;5.844;2023-07-02T01:31:46;14.80;82.10
54202;DHT22;40108;53.152;5.844;2023-07-02T01:34:13;14.70;82.20
54202;DHT22;40108;53.152;5.844;2023-07-02T01:36:39;14.70;82.40
54202;DHT22;40108;53.152;5.844;2023-07-02T01:39:05;14.70;82.50
54202;DHT22;40108;53.152;5.844;2023-07-02T01:42:23;14.70;82.70
54202;DHT22;40108;53.152;5.844;2023-07-02T01:44:30;14.70;82.80
54202;DHT22;40108;53.152;5.844;2023-07-02T01:46:56;14.60;82.90
54202;DHT22;40108;53.152;5.844;2023-07-02T01:49:22;14.60;83.20
54202;DHT22;40108;53.152;5.844;2023-07-02T01:51:52;14.60;83.30
54202;DHT22;40108;53.152;5.844;2023-07-02T01:54:19;14.60;83.40
54202;DHT22;40108;53.152;5.844;2023-07-02T01:56:44;14.60;83.50
54202;DHT22;40108;53.152;5.844;2023-07-02T01:59:10;14.50;83.40
54202;DHT22;40108;53.152;5.844;2023-07-02T02:01:37;14.50;83.60
54202;DHT22;40108;53.152;5.844;2023-07-02T02:04:09;14.50;83.70
54202;DHT22;40108;53.152;5.844;2023-07-02T02:06:36;14.50;83.80
54202;DHT22;40108;53.152;5.844;2023-07-02T02:09:03;14.40;83.90
54202;DHT22;40108;53.152;5.844;2023-07-02T02:11:30;14.40;84.00
54202;DHT22;40108;53.152;5.844;2023-07-02T02:13:57;14.40;84.00
54202;DHT22;40108;53.152;5.844;2023-07-02T02:16:23;14.40;84.10
54202;DHT22;40108;53.152;5.844;2023-07-02T02:18:49;14.40;84.10
54202;DHT22;40108;53.152;5.844;2023-07-02T02:21:22;14.40;84.10
54202;DHT22;40108;53.152;5.844;2023-07-02T02:23:47;14.40;84.10
54202;DHT22;40108;53.152;5.844;2023-07-02T02:26:14;14.40;84.10
54202;DHT22;40108;53.152;5.844;2023-07-02T02:28:41;14.40;84.10
54202;DHT22;40108;53.152;5.844;2023-07-02T02:31:06;14.40;84.10
54202;DHT22;40108;53.152;5.844;2023-07-02T02:33:33;14.40;84.10
54202;DHT22;40108;53.152;5.844;2023-07-02T02:36:01;14.40;84.10
54202;DHT22;40108;53.152;5.844;2023-07-02T02:38:26;14.40;84.00
54202;DHT22;40108;53.152;5.844;2023-07-02T02:40:52;14.40;83.80
54202;DHT22;40108;53.152;5.844;2023-07-02T02:43:18;14.40;83.80
54202;DHT22;40108;53.152;5.844;2023-07-02T02:45:43;14.40;83.70
54202;DHT22;40108;53.152;5.844;2023-07-02T02:48:09;14.40;83.80
54202;DHT22;40108;53.152;5.844;2023-07-02T02:50:36;14.40;83.80
54202;DHT22;40108;53.152;5.844;2023-07-02T02:53:02;14.50;83.80
54202;DHT22;40108;53.152;5.844;2023-07-02T02:55:28;14.50;83.70
54202;DHT22;40108;53.152;5.844;2023-07-02T02:57:53;14.50;83.60
54202;DHT22;40108;53.152;5.844;2023-07-02T03:00:19;14.60;83.50
54202;DHT22;40108;53.152;5.844;2023-07-02T03:02:45;14.60;83.10
54202;DHT22;40108;53.152;5.844;2023-07-02T03:05:10;14.60;82.70
54202;DHT22;40108;53.152;5.844;2023-07-02T03:07:38;14.60;82.30
54202;DHT22;40108;53.152;5.844;2023-07-02T03:10:04;14.60;82.00
54202;DHT22;40108;53.152;5.844;2023-07-02T03:12:30;14.70;81.50
54202;DHT22;40108;53.152;5.844;2023-07-02T03:14:56;14.80;81.50
54202;DHT22;40108;53.152;5.844;2023-07-02T03:17:22;14.80;81.40
54202;DHT22;40108;53.152;5.844;2023-07-02T03:19:47;14.90;81.40
54202;DHT22;40108;53.152;5.844;2023-07-02T03:22:13;14.90;81.40
54202;DHT22;40108;53.152;5.844;2023-07-02T03:24:39;14.90;81.20
54202;DHT22;40108;53.152;5.844;2023-07-02T03:27:05;14.90;81.10
54202;DHT22;40108;53.152;5.844;2023-07-02T03:29:32;14.90;81.30
54202;DHT22;40108;53.152;5.844;2023-07-02T03:31:58;14.90;81.40
54202;DHT22;40108;53.152;5.844;2023-07-02T03:34:23;14.90;81.30
54202;DHT22;40108;53.152;5.844;2023-07-02T03:36:49;15.00;81.30
54202;DHT22;40108;53.152;5.844;2023-07-02T03:39:15;15.00;81.40
54202;DHT22;40108;53.152;5.844;2023-07-02T03:41:42;15.00;81.50
54202;DHT22;40108;53.152;5.844;2023-07-02T03:44:07;15.10;81.50
54202;DHT22;40108;53.152;5.844;2023-07-02T03:46:33;15.10;81.90
54202;DHT22;40108;53.152;5.844;2023-07-02T03:48:59;15.10;83.10
54202;DHT22;40108;53.152;5.844;2023-07-02T03:51:25;15.10;83.30
54202;DHT22;40108;53.152;5.844;2023-07-02T03:53:50;15.00;83.50
54202;DHT22;40108;53.152;5.844;2023-07-02T03:56:16;14.90;83.80
54202;DHT22;40108;53.152;5.844;2023-07-02T03:58:42;14.80;83.50
54202;DHT22;40108;53.152;5.844;2023-07-02T04:01:08;14.80;83.20
54202;DHT22;40108;53.152;5.844;2023-07-02T04:03:34;14.70;82.90
54202;DHT22;40108;53.152;5.844;2023-07-02T04:06:00;14.60;82.40
54202;DHT22;40108;53.152;5.844;2023-07-02T04:08:26;14.60;82.20
54202;DHT22;40108;53.152;5.844;2023-07-02T04:10:54;14.50;82.20
54202;DHT22;40108;53.152;5.844;2023-07-02T04:13:20;14.40;81.70
54202;DHT22;40108;53.152;5.844;2023-07-02T04:15:45;14.40;81.80
54202;DHT22;40108;53.152;5.844;2023-07-02T04:18:11;14.40;81.90
54202;DHT22;40108;53.152;5.844;2023-07-02T04:20:37;14.40;82.10
54202;DHT22;40108;53.152;5.844;2023-07-02T04:23:06;14.40;82.00
54202;DHT22;40108;53.152;5.844;2023-07-02T04:25:32;14.40;82.10
54202;DHT22;40108;53.152;5.844;2023-07-02T04:27:57;14.40;81.90
54202;DHT22;40108;53.152;5.844;2023-07-02T04:30:25;14.40;81.80
54202;DHT22;40108;53.152;5.844;2023-07-02T04:32:51;14.40;81.30
54202;DHT22;40108;53.152;5.844;2023-07-02T04:35:17;14.50;81.20
54202;DHT22;40108;53.152;5.844;2023-07-02T04:37:44;14.50;80.70
54202;DHT22;40108;53.152;5.844;2023-07-02T04:40:10;14.60;80.90
54202;DHT22;40108;53.152;5.844;2023-07-02T04:42:40;14.60;80.90
54202;DHT22;40108;53.152;5.844;2023-07-02T04:45:07;14.60;81.30
54202;DHT22;40108;53.152;5.844;2023-07-02T04:47:34;14.70;81.40
54202;DHT22;40108;53.152;5.844;2023-07-02T04:50:00;14.70;81.10
54202;DHT22;40108;53.152;5.844;2023-07-02T04:52:27;14.80;81.00
54202;DHT22;40108;53.152;5.844;2023-07-02T04:54:53;14.80;80.90
54202;DHT22;40108;53.152;5.844;2023-07-02T04:57:18;14.80;80.80
54202;DHT22;40108;53.152;5.844;2023-07-02T04:59:44;14.90;81.20
54202;DHT22;40108;53.152;5.844;2023-07-02T05:02:10;14.90;81.40
54202;DHT22;40108;53.152;5.844;2023-07-02T05:04:36;15.00;81.60
54202;DHT22;40108;53.152;5.844;2023-07-02T05:07:05;15.10;81.90
54202;DHT22;40108;53.152;5.844;2023-07-02T05:09:31;15.10;81.90
54202;DHT22;40108;53.152;5.844;2023-07-02T05:12:00;15.10;82.00
54202;DHT22;40108;53.152;5.844;2023-07-02T05:14:25;15.10;82.10
54202;DHT22;40108;53.152;5.844;2023-07-02T05:16:51;15.00;82.40
54202;DHT22;40108;53.152;5.844;2023-07-02T05:19:17;14.90;82.90
54202;DHT22;40108;53.152;5.844;2023-07-02T05:21:42;14.90;83.50
54202;DHT22;40108;53.152;5.844;2023-07-02T05:24:08;14.90;83.80
54202;DHT22;40108;53.152;5.844;2023-07-02T05:26:34;14.90;84.10
54202;DHT22;40108;53.152;5.844;2023-07-02T05:29:01;14.90;84.10
54202;DHT22;40108;53.152;5.844;2023-07-02T05:31:27;14.80;84.00
54202;DHT22;40108;53.152;5.844;2023-07-02T05:33:53;14.80;83.70
54202;DHT22;40108;53.152;5.844;2023-07-02T05:36:19;14.80;83.50
54202;DHT22;40108;53.152;5.844;2023-07-02T05:38:45;14.80;83.20
54202;DHT22;40108;53.152;5.844;2023-07-02T05:41:11;14.90;83.10
54202;DHT22;40108;53.152;5.844;2023-07-02T05:43:39;15.00;82.80
54202;DHT22;40108;53.152;5.844;2023-07-02T05:46:05;15.10;82.70
54202;DHT22;40108;53.152;5.844;2023-07-02T05:48:30;15.30;82.20
54202;DHT22;40108;53.152;5.844;2023-07-02T05:50:56;15.50;82.60
54202;DHT22;40108;53.152;5.844;2023-07-02T05:53:22;15.70;81.80
54202;DHT22;40108;53.152;5.844;2023-07-02T05:55:48;15.80;81.10
54202;DHT22;40108;53.152;5.844;2023-07-02T05:58:13;15.80;79.50
54202;DHT22;40108;53.152;5.844;2023-07-02T06:00:39;15.80;78.80
54202;DHT22;40108;53.152;5.844;2023-07-02T06:03:07;15.60;78.30
54202;DHT22;40108;53.152;5.844;2023-07-02T06:05:33;15.60;77.70
54202;DHT22;40108;53.152;5.844;2023-07-02T06:07:59;15.60;77.70
54202;DHT22;40108;53.152;5.844;2023-07-02T06:10:24;15.60;75.90
54202;DHT22;40108;53.152;5.844;2023-07-02T06:12:50;15.70;76.70
54202;DHT22;40108;53.152;5.844;2023-07-02T06:15:19;15.80;74.40
54202;DHT22;40108;53.152;5.844;2023-07-02T06:17:45;16.00;74.70
54202;DHT22;40108;53.152;5.844;2023-07-02T06:20:11;16.10;74.20
54202;DHT22;40108;53.152;5.844;2023-07-02T06:22:36;16.10;74.20
54202;DHT22;40108;53.152;5.844;2023-07-02T06:25:03;16.20;73.50
54202;DHT22;40108;53.152;5.844;2023-07-02T06:27:29;16.30;73.90
54202;DHT22;40108;53.152;5.844;2023-07-02T06:29:54;16.40;74.70
54202;DHT22;40108;53.152;5.844;2023-07-02T06:32:20;16.60;75.40
54202;DHT22;40108;53.152;5.844;2023-07-02T06:34:46;16.60;73.30
54202;DHT22;40108;53.152;5.844;2023-07-02T06:37:15;16.60;74.00
54202;DHT22;40108;53.152;5.844;2023-07-02T06:39:40;16.70;73.40
54202;DHT22;40108;53.152;5.844;2023-07-02T06:42:06;16.60;73.40
54202;DHT22;40108;53.152;5.844;2023-07-02T06:44:32;16.60;73.60
54202;DHT22;40108;53.152;5.844;2023-07-02T06:47:00;16.70;73.40
54202;DHT22;40108;53.152;5.844;2023-07-02T06:49:26;17.00;72.50
54202;DHT22;40108;53.152;5.844;2023-07-02T06:51:51;17.20;72.00
54202;DHT22;40108;53.152;5.844;2023-07-02T06:54:17;17.10;70.10
54202;DHT22;40108;53.152;5.844;2023-07-02T06:56:43;17.40;70.70
54202;DHT22;40108;53.152;5.844;2023-07-02T06:59:08;17.60;69.60
54202;DHT22;40108;53.152;5.844;2023-07-02T07:01:37;17.70;70.30
54202;DHT22;40108;53.152;5.844;2023-07-02T07:04:03;17.80;68.30
54202;DHT22;40108;53.152;5.844;2023-07-02T07:06:29;17.60;69.20
54202;DHT22;40108;53.152;5.844;2023-07-02T07:08:55;17.40;69.90
54202;DHT22;40108;53.152;5.844;2023-07-02T07:11:20;17.60;69.50
54202;DHT22;40108;53.152;5.844;2023-07-02T07:13:46;17.80;68.50
54202;DHT22;40108;53.152;5.844;2023-07-02T07:16:12;18.10;68.60
54202;DHT22;40108;53.152;5.844;2023-07-02T07:18:37;18.40;68.50
54202;DHT22;40108;53.152;5.844;2023-07-02T07:21:06;18.60;68.30
54202;DHT22;40108;53.152;5.844;2023-07-02T07:23:32;18.60;66.30
54202;DHT22;40108;53.152;5.844;2023-07-02T07:25:57;18.20;65.80
54202;DHT22;40108;53.152;5.844;2023-07-02T07:28:26;18.00;66.80
54202;DHT22;40108;53.152;5.844;2023-07-02T07:30:51;17.80;67.20
54202;DHT22;40108;53.152;5.844;2023-07-02T07:33:19;17.70;69.00
54202;DHT22;40108;53.152;5.844;2023-07-02T07:35:45;18.00;67.90
54202;DHT22;40108;53.152;5.844;2023-07-02T07:38:13;18.00;67.70
54202;DHT22;40108;53.152;5.844;2023-07-02T07:40:40;17.80;68.10
54202;DHT22;40108;53.152;5.844;2023-07-02T07:43:06;17.60;69.60
54202;DHT22;40108;53.152;5.844;2023-07-02T07:45:32;17.60;70.20
54202;DHT22;40108;53.152;5.844;2023-07-02T07:47:58;17.40;70.20
54202;DHT22;40108;53.152;5.844;2023-07-02T07:50:24;17.40;71.20
54202;DHT22;40108;53.152;5.844;2023-07-02T07:52:50;17.20;71.30
54202;DHT22;40108;53.152;5.844;2023-07-02T07:55:16;17.10;71.80
54202;DHT22;40108;53.152;5.844;2023-07-02T07:57:42;17.10;72.80
54202;DHT22;40108;53.152;5.844;2023-07-02T08:00:09;17.40;71.50
54202;DHT22;40108;53.152;5.844;2023-07-02T08:02:38;17.60;71.60
54202;DHT22;40108;53.152;5.844;2023-07-02T08:05:04;17.60;70.90
54202;DHT22;40108;53.152;5.844;2023-07-02T08:07:31;17.70;71.20
54202;DHT22;40108;53.152;5.844;2023-07-02T08:09:57;18.10;71.00
54202;DHT22;40108;53.152;5.844;2023-07-02T08:12:23;18.40;71.00
54202;DHT22;40108;53.152;5.844;2023-07-02T08:14:49;18.30;69.90
54202;DHT22;40108;53.152;5.844;2023-07-02T08:17:15;18.30;70.30
54202;DHT22;40108;53.152;5.844;2023-07-02T08:19:41;18.60;69.70
54202;DHT22;40108;53.152;5.844;2023-07-02T08:22:06;18.90;65.80
54202;DHT22;40108;53.152;5.844;2023-07-02T08:24:32;18.80;66.40
54202;DHT22;40108;53.152;5.844;2023-07-02T08:26:59;18.60;67.90
54202;DHT22;40108;53.152;5.844;2023-07-02T08:29:28;18.40;67.90
54202;DHT22;40108;53.152;5.844;2023-07-02T08:31:54;18.30;69.10
54202;DHT22;40108;53.152;5.844;2023-07-02T08:34:20;18.50;69.90
54202;DHT22;40108;53.152;5.844;2023-07-02T08:36:45;18.60;69.60
54202;DHT22;40108;53.152;5.844;2023-07-02T08:39:11;18.30;69.30
54202;DHT22;40108;53.152;5.844;2023-07-02T08:41:47;18.20;69.30
54202;DHT22;40108;53.152;5.844;2023-07-02T08:44:19;18.40;69.20
54202;DHT22;40108;53.152;5.844;2023-07-02T08:46:44;18.80;68.50
54202;DHT22;40108;53.152;5.844;2023-07-02T08:49:12;19.20;65.90
54202;DHT22;40108;53.152;5.844;2023-07-02T08:51:38;19.50;63.10
54202;DHT22;40108;53.152;5.844;2023-07-02T08:54:04;19.60;61.50
54202;DHT22;40108;53.152;5.844;2023-07-02T08:56:30;19.80;63.40
54202;DHT22;40108;53.152;5.844;2023-07-02T08:58:56;20.10;63.90
54202;DHT22;40108;53.152;5.844;2023-07-02T09:01:22;20.20;63.00
54202;DHT22;40108;53.152;5.844;2023-07-02T09:03:49;20.20;62.00
54202;DHT22;40108;53.152;5.844;2023-07-02T09:06:17;20.50;62.70
54202;DHT22;40108;53.152;5.844;2023-07-02T09:08:44;20.40;59.70
54202;DHT22;40108;53.152;5.844;2023-07-02T09:11:14;20.10;60.90
54202;DHT22;40108;53.152;5.844;2023-07-02T09:13:52;19.70;61.60
54202;DHT22;40108;53.152;5.844;2023-07-02T09:16:30;19.30;63.00
54202;DHT22;40108;53.152;5.844;2023-07-02T09:19:05;19.10;62.90
54202;DHT22;40108;53.152;5.844;2023-07-02T09:24:22;19.20;65.50
54202;DHT22;40108;53.152;5.844;2023-07-02T09:26:52;19.50;64.30
54202;DHT22;40108;53.152;5.844;2023-07-02T09:29:31;19.20;62.80
54202;DHT22;40108;53.152;5.844;2023-07-02T09:32:01;19.10;62.70
54202;DHT22;40108;53.152;5.844;2023-07-02T09:36:55;19.40;63.50
54202;DHT22;40108;53.152;5.844;2023-07-02T09:41:55;19.80;64.20
54202;DHT22;40108;53.152;5.844;2023-07-02T09:44:21;20.20;62.00
54202;DHT22;40108;53.152;5.844;2023-07-02T09:47:08;20.30;61.80
54202;DHT22;40108;53.152;5.844;2023-07-02T09:49:41;20.20;61.60
54202;DHT22;40108;53.152;5.844;2023-07-02T09:52:09;20.10;61.10
54202;DHT22;40108;53.152;5.844;2023-07-02T09:54:35;20.10;62.70
54202;DHT22;40108;53.152;5.844;2023-07-02T09:57:02;20.20;61.60
54202;DHT22;40108;53.152;5.844;2023-07-02T09:59:28;20.20;61.20
54202;DHT22;40108;53.152;5.844;2023-07-02T10:01:55;20.40;62.80
54202;DHT22;40108;53.152;5.844;2023-07-02T10:04:21;20.60;61.30
54202;DHT22;40108;53.152;5.844;2023-07-02T10:14:42;20.70;57.90
54202;DHT22;40108;53.152;5.844;2023-07-02T10:17:09;20.60;57.40
54202;DHT22;40108;53.152;5.844;2023-07-02T10:19:35;20.30;58.10
54202;DHT22;40108;53.152;5.844;2023-07-02T10:22:04;20.20;59.60
54202;DHT22;40108;53.152;5.844;2023-07-02T10:24:30;20.00;59.90
54202;DHT22;40108;53.152;5.844;2023-07-02T10:27:00;19.60;61.40
54202;DHT22;40108;53.152;5.844;2023-07-02T10:29:28;19.50;63.20
54202;DHT22;40108;53.152;5.844;2023-07-02T10:31:56;19.40;63.80
54202;DHT22;40108;53.152;5.844;2023-07-02T10:36:55;19.90;62.80
54202;DHT22;40108;53.152;5.844;2023-07-02T10:39:21;20.10;61.90
54202;DHT22;40108;53.152;5.844;2023-07-02T10:41:46;20.30;62.20
54202;DHT22;40108;53.152;5.844;2023-07-02T10:44:12;20.20;60.50
54202;DHT22;40108;53.152;5.844;2023-07-02T10:46:48;20.00;61.60
54202;DHT22;40108;53.152;5.844;2023-07-02T10:49:18;19.60;62.30
54202;DHT22;40108;53.152;5.844;2023-07-02T10:52:02;19.40;62.10
54202;DHT22;40108;53.152;5.844;2023-07-02T10:54:48;19.60;62.90
54202;DHT22;40108;53.152;5.844;2023-07-02T10:57:16;20.10;63.50
54202;DHT22;40108;53.152;5.844;2023-07-02T10:59:46;20.10;61.70
54202;DHT22;40108;53.152;5.844;2023-07-02T11:02:11;20.30;60.70
54202;DHT22;40108;53.152;5.844;2023-07-02T11:04:37;20.60;59.90
54202;DHT22;40108;53.152;5.844;2023-07-02T11:07:04;20.70;59.80
54202;DHT22;40108;53.152;5.844;2023-07-02T11:09:33;20.60;60.10
54202;DHT22;40108;53.152;5.844;2023-07-02T11:12:01;20.50;58.90
54202;DHT22;40108;53.152;5.844;2023-07-02T11:14:34;20.50;59.80
54202;DHT22;40108;53.152;5.844;2023-07-02T11:17:04;20.50;58.90
54202;DHT22;40108;53.152;5.844;2023-07-02T11:19:32;20.40;58.70
54202;DHT22;40108;53.152;5.844;2023-07-02T11:21:58;20.50;58.50
54202;DHT22;40108;53.152;5.844;2023-07-02T11:24:34;20.70;58.20
54202;DHT22;40108;53.152;5.844;2023-07-02T11:27:02;21.10;58.30
54202;DHT22;40108;53.152;5.844;2023-07-02T11:29:32;21.60;59.70
54202;DHT22;40108;53.152;5.844;2023-07-02T11:32:08;22.00;57.00
54202;DHT22;40108;53.152;5.844;2023-07-02T11:34:35;22.10;54.40
54202;DHT22;40108;53.152;5.844;2023-07-02T11:37:01;21.90;53.10
54202;DHT22;40108;53.152;5.844;2023-07-02T11:39:27;21.80;54.90
54202;DHT22;40108;53.152;5.844;2023-07-02T11:41:53;21.60;55.60
54202;DHT22;40108;53.152;5.844;2023-07-02T11:44:19;21.30;54.80
54202;DHT22;40108;53.152;5.844;2023-07-02T11:46:45;20.90;55.80
54202;DHT22;40108;53.152;5.844;2023-07-02T11:49:12;20.60;56.70
54202;DHT22;40108;53.152;5.844;2023-07-02T11:51:42;20.30;57.20
54202;DHT22;40108;53.152;5.844;2023-07-02T11:54:14;20.10;57.40
54202;DHT22;40108;53.152;5.844;2023-07-02T11:56:41;20.00;57.90
54202;DHT22;40108;53.152;5.844;2023-07-02T11:59:08;19.80;58.40
54202;DHT22;40108;53.152;5.844;2023-07-02T12:01:34;19.70;59.00
54202;DHT22;40108;53.152;5.844;2023-07-02T12:04:00;19.60;59.20
54202;DHT22;40108;53.152;5.844;2023-07-02T12:06:25;19.50;60.10
54202;DHT22;40108;53.152;5.844;2023-07-02T12:08:51;19.50;60.70
54202;DHT22;40108;53.152;5.844;2023-07-02T12:11:17;19.40;60.10
54202;DHT22;40108;53.152;5.844;2023-07-02T12:13:43;19.40;60.20
54202;DHT22;40108;53.152;5.844;2023-07-02T12:16:09;19.30;60.70
54202;DHT22;40108;53.152;5.844;2023-07-02T12:18:34;19.10;61.50
54202;DHT22;40108;53.152;5.844;2023-07-02T12:21:00;19.10;62.90
54202;DHT22;40108;53.152;5.844;2023-07-02T12:23:26;19.10;62.90
54202;DHT22;40108;53.152;5.844;2023-07-02T12:25:51;19.20;64.00
54202;DHT22;40108;53.152;5.844;2023-07-02T12:28:17;19.10;63.50
54202;DHT22;40108;53.152;5.844;2023-07-02T12:30:43;19.10;64.20
54202;DHT22;40108;53.152;5.844;2023-07-02T12:33:08;19.00;64.90
54202;DHT22;40108;53.152;5.844;2023-07-02T12:35:37;19.00;63.00
54202;DHT22;40108;53.152;5.844;2023-07-02T12:38:03;18.90;62.50
54202;DHT22;40108;53.152;5.844;2023-07-02T12:40:29;18.90;63.80
54202;DHT22;40108;53.152;5.844;2023-07-02T12:42:55;19.20;65.50
54202;DHT22;40108;53.152;5.844;2023-07-02T12:45:22;19.30;64.30
54202;DHT22;40108;53.152;5.844;2023-07-02T12:47:48;19.20;64.60
54202;DHT22;40108;53.152;5.844;2023-07-02T12:50:13;19.20;63.80
54202;DHT22;40108;53.152;5.844;2023-07-02T12:52:39;19.10;62.20
54202;DHT22;40108;53.152;5.844;2023-07-02T12:55:05;18.90;62.70
54202;DHT22;40108;53.152;5.844;2023-07-02T12:57:31;18.80;64.40
54202;DHT22;40108;53.152;5.844;2023-07-02T12:59:57;18.90;65.60
54202;DHT22;40108;53.152;5.844;2023-07-02T13:02:23;18.90;65.80
54202;DHT22;40108;53.152;5.844;2023-07-02T13:04:49;19.00;65.00
54202;DHT22;40108;53.152;5.844;2023-07-02T13:07:16;19.00;64.70
54202;DHT22;40108;53.152;5.844;2023-07-02T13:09:41;18.80;63.90
54202;DHT22;40108;53.152;5.844;2023-07-02T13:12:07;18.80;63.30
54202;DHT22;40108;53.152;5.844;2023-07-02T13:14:34;18.80;63.10
54202;DHT22;40108;53.152;5.844;2023-07-02T13:17:00;18.80;63.00
54202;DHT22;40108;53.152;5.844;2023-07-02T13:19:25;18.80;63.30
54202;DHT22;40108;53.152;5.844;2023-07-02T13:21:51;18.80;63.50
54202;DHT22;40108;53.152;5.844;2023-07-02T13:24:17;18.60;63.50
54202;DHT22;40108;53.152;5.844;2023-07-02T13:26:42;18.50;64.20
54202;DHT22;40108;53.152;5.844;2023-07-02T13:29:08;18.40;63.70
54202;DHT22;40108;53.152;5.844;2023-07-02T13:31:34;18.20;64.10
54202;DHT22;40108;53.152;5.844;2023-07-02T13:34:00;18.10;65.00
54202;DHT22;40108;53.152;5.844;2023-07-02T13:36:25;18.10;64.40
54202;DHT22;40108;53.152;5.844;2023-07-02T13:38:54;18.10;64.10
54202;DHT22;40108;53.152;5.844;2023-07-02T13:41:20;18.10;64.40
54202;DHT22;40108;53.152;5.844;2023-07-02T13:43:46;18.10;63.40
54202;DHT22;40108;53.152;5.844;2023-07-02T13:46:11;18.10;64.20
54202;DHT22;40108;53.152;5.844;2023-07-02T13:48:40;18.10;64.90
54202;DHT22;40108;53.152;5.844;2023-07-02T13:51:06;18.10;63.90
54202;DHT22;40108;53.152;5.844;2023-07-02T13:53:35;18.00;64.60
54202;DHT22;40108;53.152;5.844;2023-07-02T13:56:01;17.90;65.90
54202;DHT22;40108;53.152;5.844;2023-07-02T14:01:10;17.90;67.40
54202;DHT22;40108;53.152;5.844;2023-07-02T14:03:36;18.00;67.70
54202;DHT22;40108;53.152;5.844;2023-07-02T14:06:01;18.10;66.90
54202;DHT22;40108;53.152;5.844;2023-07-02T14:08:27;18.20;67.20
54202;DHT22;40108;53.152;5.844;2023-07-02T14:10:53;18.50;63.60
54202;DHT22;40108;53.152;5.844;2023-07-02T14:13:18;18.70;61.00
54202;DHT22;40108;53.152;5.844;2023-07-02T14:15:44;18.90;62.10
54202;DHT22;40108;53.152;5.844;2023-07-02T14:18:10;18.80;62.50
54202;DHT22;40108;53.152;5.844;2023-07-02T14:20:35;18.80;61.80
54202;DHT22;40108;53.152;5.844;2023-07-02T14:23:01;18.70;61.90
54202;DHT22;40108;53.152;5.844;2023-07-02T14:25:27;18.60;62.20
54202;DHT22;40108;53.152;5.844;2023-07-02T14:27:52;18.80;62.40
54202;DHT22;40108;53.152;5.844;2023-07-02T14:30:18;18.90;59.30
54202;DHT22;40108;53.152;5.844;2023-07-02T14:32:44;19.10;58.20
54202;DHT22;40108;53.152;5.844;2023-07-02T14:35:11;19.10;57.50
54202;DHT22;40108;53.152;5.844;2023-07-02T14:37:37;19.00;57.90
54202;DHT22;40108;53.152;5.844;2023-07-02T14:40:03;18.80;59.50
54202;DHT22;40108;53.152;5.844;2023-07-02T14:42:28;18.80;60.70
54202;DHT22;40108;53.152;5.844;2023-07-02T14:44:54;18.70;61.40
54202;DHT22;40108;53.152;5.844;2023-07-02T14:47:20;18.60;60.80
54202;DHT22;40108;53.152;5.844;2023-07-02T14:49:46;18.40;61.90
54202;DHT22;40108;53.152;5.844;2023-07-02T14:52:12;18.40;62.00
54202;DHT22;40108;53.152;5.844;2023-07-02T14:54:38;18.40;62.10
54202;DHT22;40108;53.152;5.844;2023-07-02T14:57:04;18.30;62.50
54202;DHT22;40108;53.152;5.844;2023-07-02T14:59:30;18.10;62.70
54202;DHT22;40108;53.152;5.844;2023-07-02T15:01:55;18.10;62.70
54202;DHT22;40108;53.152;5.844;2023-07-02T15:04:21;17.90;62.60
54202;DHT22;40108;53.152;5.844;2023-07-02T15:06:47;17.80;62.80
54202;DHT22;40108;53.152;5.844;2023-07-02T15:09:12;17.70;64.20
54202;DHT22;40108;53.152;5.844;2023-07-02T15:11:38;17.60;65.20
54202;DHT22;40108;53.152;5.844;2023-07-02T15:14:04;17.60;66.20
54202;DHT22;40108;53.152;5.844;2023-07-02T15:16:30;17.40;67.10
54202;DHT22;40108;53.152;5.844;2023-07-02T15:18:56;17.20;68.00
54202;DHT22;40108;53.152;5.844;2023-07-02T15:21:21;17.10;69.20
54202;DHT22;40108;53.152;5.844;2023-07-02T15:23:48;17.10;70.20
54202;DHT22;40108;53.152;5.844;2023-07-02T15:26:14;17.00;70.10
54202;DHT22;40108;53.152;5.844;2023-07-02T15:28:41;16.90;70.40
54202;DHT22;40108;53.152;5.844;2023-07-02T15:31:09;16.80;70.90
54202;DHT22;40108;53.152;5.844;2023-07-02T15:33:36;16.70;71.30
54202;DHT22;40108;53.152;5.844;2023-07-02T15:36:03;16.60;71.50
54202;DHT22;40108;53.152;5.844;2023-07-02T15:38:30;16.50;71.80
54202;DHT22;40108;53.152;5.844;2023-07-02T15:41:08;16.50;71.90
54202;DHT22;40108;53.152;5.844;2023-07-02T15:43:34;16.60;72.40
54202;DHT22;40108;53.152;5.844;2023-07-02T15:46:00;16.60;72.50
54202;DHT22;40108;53.152;5.844;2023-07-02T15:48:26;16.70;72.00
54202;DHT22;40108;53.152;5.844;2023-07-02T15:50:52;16.80;71.70